Airfield :
LOGIN :

Register | Disclaimer

   EN    FR    IT 

 










Legend :    VFR   Marginal VFR   IFR   Intensive IFR   Very Intensive IFR
Visi :
Ceiling :
>= 8 km
>= 3000ft
5 to 8 km
1000 to 3000 ft
1500m to 5 km
500 to 1000 ft
800 to 1500m
200 to 500 ft
< 800m
< 200 ft
Symbols :   Thunderstorms  Fog  Heavy snow  Heavy precipitations  Wind > 20 kt
SIGMETs :     Misc.  Thunderstorms  Icing  Turbulence  Mountain Waves  Volcanic Ashes






- Airport Elevation : 499 ft
- IATA code : TLS


LFBO - Toulouse / Blagnac

CURRENT METAR :
  • 301330Z AUTO 02003KT 300V100 9999 OVC008 05/03 Q1018 NOSIG

EXPIRED METARs :
  • 301300Z AUTO VRB02KT 9999 OVC007 05/04 Q1018 NOSIG
  • 301230Z AUTO VRB03KT 9999 OVC007 05/04 Q1018 NOSIG
  • 301200Z AUTO VRB03KT 9999 OVC006 05/04 Q1018 NOSIG
  • 301130Z AUTO VRB03KT 8000 OVC005 05/04 Q1019 BECMG BKN012
  • 301100Z AUTO 01004KT 330V040 8000 OVC005 05/04 Q1019 BECMG BKN012

TAF TAF LFBO
Valid from the 30 at 12:00 until the 01 at 18:00 UTC


301100Z 3012/0118 VRB03KT 8000 OVC005
BECMG 3013/3015 9999 BKN008
BECMG 3018/3020 4000 BR OVC004
PROB30
TEMPO 3021/0106 0800 FG VV///
BECMG 0108/0110 30006KT 9999 NSW OVC009
ATIS : +33 5 62 74 66 36



MET'MAP, your aeronautical weather chart ! - Copyright ORBIFLY December 2007 - Disclaimer

ORBIFLY MET'MAP TEAM :

Programming & Development : Alexandra Zaïnal
Original concept : Baudouin d'Aumeries
Technical & hardware support : Manuel Goepfert
Assistance : Marc-Olivier Méhu




SOURCES & CREDITS :

   NOAA